Time;durP1;ratioP1;P1;durP2;ratioP2;P2;SDS_P1;SDS_P2;PMS_P1;PMS_P2;Temp;Humidity;BMP_temperature;BMP_pressure;BME280_temperature;BME280_humidity;BME280_pressure;Samples;Min_cycle;Max_cycle;Signal;HPM_P1;HPM_P2
2021/09/02 00:01:40;;;;;;;12.33;9.53;;;15.40;99.90;;;;;;5158264;27;20411;-87
2021/09/02 00:04:06;;;;;;;11.60;9.80;;;15.40;99.90;;;;;;5150955;27;20806;-87
2021/09/02 00:06:34;;;;;;;11.67;10.47;;;15.40;99.90;;;;;;5148728;27;20492;-87
2021/09/02 00:09:01;;;;;;;12.97;9.47;;;15.40;99.90;;;;;;5156864;27;20426;-87
2021/09/02 00:11:27;;;;;;;12.30;10.10;;;15.40;99.90;;;;;;5149205;27;20495;-88
2021/09/02 00:13:54;;;;;;;13.30;10.03;;;15.30;99.90;;;;;;5143490;27;20462;-87
2021/09/02 00:16:21;;;;;;;12.63;10.07;;;15.40;99.90;;;;;;5151091;27;20485;-87
2021/09/02 00:18:47;;;;;;;14.03;10.70;;;15.30;99.90;;;;;;5151822;27;20435;-87
2021/09/02 00:21:14;;;;;;;12.10;9.80;;;15.30;99.90;;;;;;5147878;27;20951;-87
2021/09/02 00:23:42;;;;;;;15.80;9.90;;;15.30;99.90;;;;;;5141138;27;20442;-87
2021/09/02 00:26:08;;;;;;;13.17;10.33;;;15.40;99.90;;;;;;5140280;27;20893;-88
2021/09/02 00:28:35;;;;;;;12.10;10.13;;;15.40;99.90;;;;;;5140566;27;20477;-87
2021/09/02 00:31:01;;;;;;;12.87;9.87;;;15.40;99.90;;;;;;5141242;27;20450;-87
2021/09/02 00:33:28;;;;;;;12.53;10.47;;;15.50;99.90;;;;;;5141078;27;20804;-87
2021/09/02 00:35:54;;;;;;;11.47;10.40;;;15.50;99.90;;;;;;5139823;27;20470;-87
2021/09/02 00:38:21;;;;;;;11.87;10.30;;;15.50;99.90;;;;;;5140009;27;20457;-87
2021/09/02 00:40:49;;;;;;;12.17;9.70;;;15.40;99.90;;;;;;5139963;27;20492;-87
2021/09/02 00:43:15;;;;;;;11.77;10.53;;;15.40;99.90;;;;;;5139908;27;20472;-87
2021/09/02 00:45:42;;;;;;;14.30;10.70;;;15.50;99.90;;;;;;5139920;27;20498;-87
2021/09/02 00:48:09;;;;;;;12.90;10.50;;;15.50;99.90;;;;;;5139487;27;20443;-87
2021/09/02 00:50:37;;;;;;;11.67;9.60;;;15.50;99.90;;;;;;5139868;27;20450;-87
2021/09/02 00:53:04;;;;;;;11.23;10.03;;;15.40;99.90;;;;;;5139596;27;20940;-87
2021/09/02 00:55:31;;;;;;;12.63;10.13;;;15.40;99.90;;;;;;5139741;27;21053;-87
2021/09/02 00:57:59;;;;;;;12.40;10.43;;;15.40;99.90;;;;;;5139409;27;20910;-87
2021/09/02 01:00:26;;;;;;;14.13;10.77;;;15.40;99.90;;;;;;5139129;27;20967;-87
2021/09/02 01:02:52;;;;;;;11.10;10.00;;;15.40;99.90;;;;;;5139735;27;20438;-87
2021/09/02 01:05:20;;;;;;;13.90;10.23;;;15.40;99.90;;;;;;5142159;27;20482;-87
2021/09/02 01:07:48;;;;;;;13.63;10.40;;;15.40;99.90;;;;;;5161037;27;20455;-87
2021/09/02 01:10:15;;;;;;;13.43;11.37;;;15.40;99.90;;;;;;5157129;27;20734;-87
2021/09/02 01:12:43;;;;;;;11.10;9.00;;;15.40;99.90;;;;;;5149116;27;20446;-87
2021/09/02 01:15:14;;;;;;;15.20;10.07;;;15.40;99.90;;;;;;5144344;27;20466;-87
2021/09/02 01:17:42;;;;;;;11.40;9.90;;;15.40;99.90;;;;;;5144458;27;20455;-86
2021/09/02 01:20:11;;;;;;;13.10;9.83;;;15.40;99.90;;;;;;5143661;27;20438;-87
2021/09/02 01:22:38;;;;;;;12.03;10.43;;;15.40;99.90;;;;;;5141499;27;20507;-87
2021/09/02 01:25:09;;;;;;;11.27;10.17;;;15.70;99.90;;;;;;5142102;27;20490;-87
2021/09/02 01:27:36;;;;;;;11.73;9.10;;;15.30;99.90;;;;;;5141691;27;20430;-87
2021/09/02 01:30:06;;;;;;;10.03;9.00;;;15.30;99.90;;;;;;5139744;27;20442;-87
2021/09/02 01:32:34;;;;;;;10.60;8.63;;;15.30;99.90;;;;;;5139677;27;20492;-87
2021/09/02 01:35:02;;;;;;;18.93;9.30;;;15.30;99.90;;;;;;5139496;27;20492;-87
2021/09/02 01:37:38;;;;;;;8.97;7.97;;;15.30;99.90;;;;;;5139197;27;20889;-87
2021/09/02 01:40:07;;;;;;;12.67;9.40;;;15.30;99.90;;;;;;5139297;27;20423;-87
2021/09/02 01:42:34;;;;;;;9.53;8.63;;;15.30;99.90;;;;;;5138457;27;20499;-87
2021/09/02 01:45:00;;;;;;;10.47;9.00;;;15.30;99.90;;;;;;5138847;27;20501;-88
2021/09/02 01:47:28;;;;;;;11.33;9.80;;;15.30;99.90;;;;;;5151132;27;20445;-88
2021/09/02 01:49:55;;;;;;;13.10;10.43;;;15.30;99.90;;;;;;5161523;27;20435;-87
2021/09/02 01:52:23;;;;;;;10.27;8.70;;;15.30;99.90;;;;;;5161747;27;20423;-88
2021/09/02 01:54:50;;;;;;;9.13;7.70;;;15.30;99.90;;;;;;5161691;27;20438;-87
2021/09/02 01:57:18;;;;;;;13.27;8.40;;;15.30;99.90;;;;;;5151091;27;20474;-87
2021/09/02 01:59:44;;;;;;;9.50;8.53;;;15.30;99.90;;;;;;5137848;27;20520;-86
2021/09/02 02:02:11;;;;;;;11.67;8.80;;;15.30;99.90;;;;;;5136573;27;20495;-86
2021/09/02 02:04:37;;;;;;;11.03;9.13;;;15.00;99.90;;;;;;5136461;27;20446;-86
2021/09/02 02:07:04;;;;;;;10.17;9.00;;;15.30;99.90;;;;;;5137246;27;20479;-86
2021/09/02 02:09:31;;;;;;;10.10;9.10;;;15.30;99.90;;;;;;5137194;27;20886;-86
2021/09/02 02:11:57;;;;;;;9.87;8.60;;;15.30;99.90;;;;;;5137003;27;20824;-86
2021/09/02 02:14:25;;;;;;;10.23;9.10;;;15.30;99.90;;;;;;5153039;27;20476;-87
2021/09/02 02:16:52;;;;;;;10.73;9.37;;;15.30;99.90;;;;;;5160983;27;20474;-87
2021/09/02 02:19:19;;;;;;;11.10;9.40;;;15.30;99.90;;;;;;5160780;27;20444;-87
2021/09/02 02:21:46;;;;;;;10.33;9.20;;;15.30;99.90;;;;;;5151731;27;20813;-87
2021/09/02 02:24:13;;;;;;;11.53;10.20;;;15.30;99.90;;;;;;5137861;27;20534;-87
2021/09/02 02:26:39;;;;;;;10.37;9.37;;;15.40;99.90;;;;;;5136946;27;20463;-86
2021/09/02 02:29:06;;;;;;;12.33;11.07;;;15.40;99.90;;;;;;5136387;27;20979;-86
2021/09/02 02:31:34;;;;;;;10.70;9.63;;;15.30;99.90;;;;;;5136662;27;20443;-86
2021/09/02 02:34:01;;;;;;;11.93;10.20;;;15.30;99.90;;;;;;5136677;27;20511;-86
2021/09/02 02:36:27;;;;;;;13.47;11.00;;;15.20;99.90;;;;;;5137168;27;20989;-86
2021/09/02 02:38:54;;;;;;;11.00;9.03;;;15.20;99.90;;;;;;5136652;27;20482;-86
2021/09/02 02:41:21;;;;;;;11.23;9.87;;;15.20;99.90;;;;;;5136441;27;20446;-86
2021/09/02 02:43:47;;;;;;;12.30;10.13;;;15.20;99.90;;;;;;5136283;27;20454;-86
2021/09/02 02:46:14;;;;;;;13.93;10.00;;;15.20;99.90;;;;;;5149809;27;20459;-86
2021/09/02 02:48:42;;;;;;;13.90;10.10;;;15.20;99.90;;;;;;5136506;27;20956;-86
2021/09/02 02:51:08;;;;;;;12.07;9.63;;;15.10;99.90;;;;;;5136408;27;20952;-87
2021/09/02 02:53:35;;;;;;;10.17;9.10;;;15.10;99.90;;;;;;5136466;27;20855;-86
2021/09/02 02:56:02;;;;;;;13.20;9.57;;;15.10;99.90;;;;;;5136123;27;20498;-86
2021/09/02 02:58:28;;;;;;;13.00;11.27;;;15.10;99.90;;;;;;5136560;27;20505;-86
2021/09/02 03:00:55;;;;;;;10.23;9.17;;;15.10;99.90;;;;;;5157649;27;20418;-86
2021/09/02 03:03:21;;;;;;;12.60;9.57;;;15.10;99.90;;;;;;5159797;27;20434;-86
2021/09/02 03:05:49;;;;;;;9.77;8.77;;;15.10;99.90;;;;;;5159647;27;20474;-86
2021/09/02 03:08:16;;;;;;;12.60;10.10;;;15.00;99.90;;;;;;5147632;27;20439;-86
2021/09/02 03:10:43;;;;;;;10.97;9.67;;;15.00;99.90;;;;;;5144415;27;20442;-86
2021/09/02 03:13:09;;;;;;;10.17;9.07;;;15.00;99.90;;;;;;5138248;27;20447;-86
2021/09/02 03:15:36;;;;;;;12.83;11.03;;;15.00;99.90;;;;;;5139642;27;20539;-86
2021/09/02 03:18:02;;;;;;;12.00;9.57;;;15.00;99.90;;;;;;5139997;28;20478;-86
2021/09/02 03:20:29;;;;;;;10.93;9.20;;;14.90;99.90;;;;;;5136624;28;20472;-86
2021/09/02 03:22:57;;;;;;;11.50;10.30;;;14.90;99.90;;;;;;5136415;28;20474;-86
2021/09/02 03:28:58;;;;;;;10.73;8.80;;;14.30;99.90;;;;;;5769529;22;20489;-87
2021/09/02 03:31:24;;;;;;;12.50;9.90;;;14.90;99.90;;;;;;5140067;28;20465;-87
2021/09/02 03:33:51;;;;;;;11.47;9.70;;;14.80;99.90;;;;;;5145282;28;20466;-88
2021/09/02 03:36:19;;;;;;;10.27;8.90;;;14.80;99.90;;;;;;5157892;27;20439;-87
2021/09/02 03:38:46;;;;;;;10.03;9.00;;;15.10;99.90;;;;;;5162099;27;20474;-88
2021/09/02 03:41:13;;;;;;;12.57;9.63;;;14.80;99.90;;;;;;5163940;27;20443;-87
2021/09/02 03:43:40;;;;;;;12.10;9.53;;;14.80;99.90;;;;;;5164336;27;20427;-87
2021/09/02 03:46:06;;;;;;;10.30;9.20;;;14.80;99.90;;;;;;5164134;27;20449;-87
2021/09/02 03:48:33;;;;;;;13.57;9.10;;;14.80;99.90;;;;;;5163463;27;20484;-87
2021/09/02 03:50:59;;;;;;;11.63;9.17;;;14.80;99.90;;;;;;5160796;27;20439;-87
2021/09/02 03:53:29;;;;;;;9.70;8.70;;;14.80;99.90;;;;;;5161044;27;20433;-86
2021/09/02 03:55:57;;;;;;;9.13;8.23;;;14.80;99.90;;;;;;5163414;27;20499;-86
2021/09/02 03:58:23;;;;;;;11.70;9.70;;;14.80;99.90;;;;;;5160456;27;20808;-87
2021/09/02 04:00:50;;;;;;;10.43;9.33;;;14.80;99.90;;;;;;5150948;27;20507;-87
2021/09/02 04:03:16;;;;;;;10.60;9.50;;;14.80;99.90;;;;;;5149346;27;20439;-87
2021/09/02 04:05:43;;;;;;;13.30;8.70;;;15.00;99.90;;;;;;5148777;27;20430;-87
2021/09/02 04:08:09;;;;;;;10.23;8.67;;;14.80;99.90;;;;;;5147860;27;20507;-87
2021/09/02 04:10:36;;;;;;;12.50;9.70;;;14.80;99.90;;;;;;5146583;27;20468;-87
2021/09/02 04:13:04;;;;;;;10.10;8.70;;;14.70;99.90;;;;;;5144902;27;20450;-87
2021/09/02 04:15:31;;;;;;;10.40;9.30;;;14.80;99.90;;;;;;5145718;27;20451;-86
2021/09/02 04:17:57;;;;;;;10.60;9.23;;;14.70;99.90;;;;;;5143133;27;20900;-87
2021/09/02 04:20:24;;;;;;;10.50;9.30;;;14.80;99.90;;;;;;5144339;27;20817;-87
2021/09/02 04:22:51;;;;;;;15.80;8.80;;;;;;;;;;5144979;27;20867;-87
2021/09/02 04:25:17;;;;;;;16.10;9.50;;;14.70;99.90;;;;;;5144046;27;20470;-86
2021/09/02 04:27:44;;;;;;;16.53;10.23;;;14.70;99.90;;;;;;5143502;27;20497;-87
2021/09/02 04:30:14;;;;;;;12.33;8.90;;;14.70;99.90;;;;;;5155314;27;20442;-87
2021/09/02 04:32:41;;;;;;;12.10;9.70;;;14.70;99.90;;;;;;5163190;27;20411;-87
2021/09/02 04:35:09;;;;;;;12.50;9.40;;;14.60;99.90;;;;;;5163266;27;20448;-87
2021/09/02 04:37:37;;;;;;;10.60;9.50;;;14.70;99.90;;;;;;5152664;27;20466;-86
2021/09/02 04:40:04;;;;;;;15.87;9.67;;;14.70;99.90;;;;;;5143671;27;20446;-87
2021/09/02 04:42:31;;;;;;;14.43;9.80;;;14.60;99.90;;;;;;5148756;27;20451;-87
2021/09/02 04:44:59;;;;;;;13.13;10.83;;;14.60;99.90;;;;;;5146854;27;20952;-87
2021/09/02 04:47:28;;;;;;;11.70;9.03;;;14.60;99.90;;;;;;5144385;27;20486;-87
2021/09/02 04:49:54;;;;;;;12.57;10.97;;;14.60;99.90;;;;;;5143527;27;20451;-87
2021/09/02 04:52:21;;;;;;;14.77;10.97;;;14.60;99.90;;;;;;5142612;27;20481;-87
2021/09/02 04:54:48;;;;;;;11.53;10.37;;;14.60;99.90;;;;;;5142512;27;20811;-87
2021/09/02 04:57:18;;;;;;;10.47;9.47;;;14.60;99.90;;;;;;5142639;27;20442;-87
2021/09/02 04:59:45;;;;;;;14.10;10.17;;;14.60;99.90;;;;;;5144357;27;20431;-87
2021/09/02 05:02:11;;;;;;;12.00;9.60;;;14.50;99.90;;;;;;5144182;27;21020;-86
2021/09/02 05:04:39;;;;;;;14.67;9.70;;;14.60;99.90;;;;;;5157263;27;20483;-87
2021/09/02 05:07:06;;;;;;;12.30;9.40;;;14.60;99.90;;;;;;5162085;27;20415;-88
2021/09/02 05:09:33;;;;;;;17.33;10.00;;;14.60;99.90;;;;;;5161681;27;20454;-88
2021/09/02 05:11:59;;;;;;;11.90;9.13;;;14.60;99.90;;;;;;5161636;27;20439;-87
2021/09/02 05:14:26;;;;;;;14.83;9.37;;;14.60;99.90;;;;;;5161386;27;20430;-87
2021/09/02 05:16:53;;;;;;;11.60;10.40;;;14.80;99.90;;;;;;5159353;27;20447;-87
2021/09/02 05:19:19;;;;;;;11.87;10.00;;;14.70;99.90;;;;;;5144768;27;20483;-88
2021/09/02 05:21:47;;;;;;;12.43;9.40;;;14.60;99.90;;;;;;5145150;27;20455;-87
2021/09/02 05:24:14;;;;;;;14.37;10.27;;;14.70;99.90;;;;;;5149600;27;20447;-87
2021/09/02 05:26:43;;;;;;;11.60;10.33;;;14.70;99.90;;;;;;5148818;27;20439;-87
2021/09/02 05:29:09;;;;;;;32.50;12.10;;;14.60;99.90;;;;;;5159689;27;20510;-87
2021/09/02 05:31:36;;;;;;;16.93;10.73;;;14.60;99.90;;;;;;5145762;27;20564;-87
2021/09/02 05:34:02;;;;;;;17.03;12.47;;;14.50;99.90;;;;;;5144809;27;20443;-87
2021/09/02 05:36:29;;;;;;;18.20;11.17;;;14.40;99.90;;;;;;5143067;27;20438;-87
2021/09/02 05:38:57;;;;;;;13.53;10.80;;;14.40;99.90;;;;;;5144509;27;21033;-87
2021/09/02 05:41:24;;;;;;;13.20;11.07;;;14.50;99.90;;;;;;5144585;27;20944;-87
2021/09/02 05:43:50;;;;;;;12.43;11.10;;;14.50;99.90;;;;;;5143742;27;20435;-88
2021/09/02 05:46:17;;;;;;;16.83;10.93;;;14.50;99.90;;;;;;5144661;27;20446;-87
2021/09/02 05:48:43;;;;;;;17.20;10.40;;;14.50;99.90;;;;;;5142123;27;20459;-87
2021/09/02 05:51:10;;;;;;;15.57;11.37;;;14.50;99.90;;;;;;5142534;27;20474;-87
2021/09/02 05:53:36;;;;;;;23.73;10.67;;;14.60;99.90;;;;;;5143056;27;20482;-87
2021/09/02 05:56:05;;;;;;;42.70;13.63;;;14.70;99.90;;;;;;5141762;27;20594;-87
2021/09/02 05:58:32;;;;;;;20.77;11.60;;;14.70;99.90;;;;;;5142408;27;20483;-88
2021/09/02 06:00:58;;;;;;;14.50;11.23;;;14.80;99.90;;;;;;5141194;27;20439;-88
2021/09/02 06:03:27;;;;;;;12.07;10.00;;;14.80;99.90;;;;;;5141352;27;20447;-88
2021/09/02 06:05:54;;;;;;;13.40;11.77;;;14.90;99.90;;;;;;5146608;27;20454;-88
2021/09/02 06:08:20;;;;;;;14.80;10.90;;;14.90;99.90;;;;;;5146656;27;20454;-88
2021/09/02 06:10:47;;;;;;;18.77;11.83;;;14.90;99.90;;;;;;5142156;27;20450;-88
2021/09/02 06:13:15;;;;;;;12.27;9.60;;;14.90;99.90;;;;;;5145851;27;20447;-88
2021/09/02 06:15:41;;;;;;;18.70;13.00;;;15.00;99.90;;;;;;5146026;27;20545;-87
2021/09/02 06:18:08;;;;;;;15.83;12.03;;;15.00;99.90;;;;;;5140934;27;20474;-88
2021/09/02 06:20:35;;;;;;;14.60;10.43;;;15.10;99.90;;;;;;5140713;27;21001;-88
2021/09/02 06:23:01;;;;;;;18.70;11.87;;;15.20;99.90;;;;;;5140686;27;20449;-88
2021/09/02 06:25:29;;;;;;;26.83;13.07;;;15.20;99.90;;;;;;5139923;27;20796;-88
2021/09/02 06:27:55;;;;;;;12.30;9.67;;;15.30;99.90;;;;;;5140348;27;20492;-86
2021/09/02 06:30:23;;;;;;;18.40;12.00;;;15.30;99.90;;;;;;5140871;27;20462;-88
2021/09/02 06:32:50;;;;;;;19.70;12.70;;;15.40;99.90;;;;;;5141416;27;20589;-87
2021/09/02 06:35:16;;;;;;;19.40;12.00;;;15.40;99.90;;;;;;5144284;27;20442;-86
2021/09/02 06:37:43;;;;;;;11.53;10.33;;;15.50;99.90;;;;;;5144256;27;20462;-87
2021/09/02 06:40:11;;;;;;;14.90;11.20;;;15.50;99.90;;;;;;5148832;27;20442;-87
2021/09/02 06:42:38;;;;;;;16.27;11.53;;;15.50;99.90;;;;;;5139756;27;20446;-87
2021/09/02 06:45:06;;;;;;;14.73;10.93;;;15.50;99.90;;;;;;5140308;27;20495;-87
2021/09/02 06:47:34;;;;;;;17.50;10.17;;;15.40;99.90;;;;;;5141028;27;20461;-87
2021/09/02 06:50:00;;;;;;;13.57;11.33;;;15.60;99.90;;;;;;5157609;27;20442;-86
2021/09/02 06:52:27;;;;;;;17.07;10.43;;;15.50;99.90;;;;;;5159993;27;20423;-86
2021/09/02 06:54:54;;;;;;;14.07;11.13;;;15.50;99.90;;;;;;5160348;27;20434;-87
2021/09/02 06:57:21;;;;;;;16.20;10.80;;;;;;;;;;5158250;27;20467;-87
2021/09/02 06:59:48;;;;;;;15.80;11.17;;;15.80;99.90;;;;;;5158363;27;20490;-88
2021/09/02 07:02:14;;;;;;;15.90;11.20;;;15.80;99.90;;;;;;5152325;27;20442;-87
2021/09/02 07:04:42;;;;;;;14.50;10.60;;;15.80;99.90;;;;;;5150212;27;20438;-87
2021/09/02 07:07:09;;;;;;;19.87;10.00;;;;;;;;;;5148547;27;20464;-88
2021/09/02 07:09:36;;;;;;;17.63;11.07;;;16.00;99.90;;;;;;5156445;27;20462;-88
2021/09/02 07:12:03;;;;;;;10.70;9.60;;;16.00;99.90;;;;;;5159652;27;20442;-89
2021/09/02 07:14:30;;;;;;;17.97;11.60;;;16.10;99.90;;;;;;5159722;27;20435;-88
2021/09/02 07:16:56;;;;;;;13.40;9.40;;;16.30;99.90;;;;;;5160187;27;20422;-87
2021/09/02 07:19:23;;;;;;;13.10;9.33;;;16.30;99.90;;;;;;5160087;27;20470;-87
2021/09/02 07:21:51;;;;;;;18.60;8.97;;;16.30;99.90;;;;;;5150174;27;21004;-87
2021/09/02 07:24:18;;;;;;;12.50;10.10;;;;;;;;;;5143191;28;20443;-86
2021/09/02 07:26:45;;;;;;;17.10;9.87;;;16.40;99.90;;;;;;5142279;28;20442;-86
2021/09/02 07:29:12;;;;;;;12.80;8.50;;;16.50;99.90;;;;;;5158310;27;20470;-86
2021/09/02 07:31:40;;;;;;;12.20;8.07;;;16.40;99.90;;;;;;5159527;27;20442;-87
2021/09/02 07:34:07;;;;;;;13.00;8.33;;;16.50;99.90;;;;;;5159918;27;20450;-87
2021/09/02 07:36:34;;;;;;;12.63;8.37;;;16.60;99.90;;;;;;5159957;27;20410;-88
2021/09/02 07:39:03;;;;;;;12.63;8.30;;;16.60;99.90;;;;;;5157044;28;20500;-87
2021/09/02 07:41:30;;;;;;;14.10;8.90;;;16.40;99.90;;;;;;5158220;27;20441;-87
2021/09/02 07:43:57;;;;;;;10.10;8.33;;;16.70;99.90;;;;;;5144428;28;20442;-88
2021/09/02 07:46:23;;;;;;;11.33;9.13;;;16.80;99.90;;;;;;5142321;28;20842;-87
2021/09/02 07:48:50;;;;;;;17.90;9.03;;;16.80;99.90;;;;;;5142189;28;20464;-87
2021/09/02 07:51:18;;;;;;;15.67;10.20;;;17.30;99.90;;;;;;5153928;27;20451;-87
2021/09/02 07:53:45;;;;;;;12.10;9.10;;;16.80;99.90;;;;;;5151202;28;20443;-87
2021/09/02 07:56:14;;;;;;;11.60;10.00;;;16.70;99.90;;;;;;5151379;28;20434;-87
2021/09/02 07:58:42;;;;;;;11.27;9.10;;;16.70;99.90;;;;;;5146524;28;20503;-87
2021/09/02 08:01:12;;;;;;;13.87;9.13;;;16.70;99.90;;;;;;5150271;28;20447;-87
2021/09/02 08:03:39;;;;;;;11.93;8.03;;;16.80;99.90;;;;;;5148527;28;20438;-88
2021/09/02 08:06:06;;;;;;;14.57;9.33;;;16.80;99.90;;;;;;5144408;28;20815;-87
2021/09/02 08:08:32;;;;;;;15.00;10.37;;;16.90;99.90;;;;;;5143877;28;20458;-87
2021/09/02 08:10:59;;;;;;;12.07;9.70;;;16.80;99.90;;;;;;5143576;28;20781;-87
2021/09/02 08:13:28;;;;;;;12.20;10.77;;;17.10;99.90;;;;;;5142284;28;20438;-87
2021/09/02 08:15:54;;;;;;;14.17;9.10;;;17.10;99.90;;;;;;5142934;28;20446;-87
2021/09/02 08:18:21;;;;;;;12.43;10.93;;;17.30;99.90;;;;;;5140579;28;20525;-87
2021/09/02 08:20:48;;;;;;;12.23;9.57;;;17.30;99.90;;;;;;5143007;28;20472;-87
2021/09/02 08:23:16;;;;;;;10.27;9.03;;;17.40;99.90;;;;;;5145751;28;20442;-89
2021/09/02 08:25:43;;;;;;;13.20;10.20;;;17.10;99.90;;;;;;5147120;27;20760;-87
2021/09/02 08:28:10;;;;;;;9.93;8.93;;;17.10;99.90;;;;;;5146972;27;20525;-87
2021/09/02 08:30:38;;;;;;;14.13;10.70;;;17.10;99.90;;;;;;5147939;27;20943;-86
2021/09/02 08:33:05;;;;;;;13.20;11.80;;;17.20;99.90;;;;;;5146334;27;20461;-87
2021/09/02 08:35:33;;;;;;;12.90;10.30;;;17.30;99.90;;;;;;5146868;27;20446;-87
2021/09/02 08:38:03;;;;;;;15.03;12.10;;;17.30;99.90;;;;;;5147520;27;20511;-88
2021/09/02 08:40:34;;;;;;;13.13;10.80;;;17.10;99.90;;;;;;5146823;27;20470;-87
2021/09/02 08:43:01;;;;;;;12.40;10.30;;;17.20;99.90;;;;;;5146048;27;20434;-87
2021/09/02 08:45:30;;;;;;;12.60;10.13;;;18.00;99.90;;;;;;5146826;27;20461;-87
2021/09/02 08:48:00;;;;;;;13.77;12.33;;;17.50;99.90;;;;;;5150193;27;20558;-87
2021/09/02 08:50:29;;;;;;;16.63;12.50;;;17.50;99.90;;;;;;5146831;27;20478;-87
2021/09/02 08:52:56;;;;;;;15.27;13.00;;;17.50;99.90;;;;;;5144746;27;20468;-87
2021/09/02 08:55:23;;;;;;;17.47;12.80;;;17.50;99.90;;;;;;5143798;27;20438;-87
2021/09/02 08:57:52;;;;;;;14.50;12.37;;;17.70;99.90;;;;;;5149462;27;20454;-87
2021/09/02 09:00:20;;;;;;;15.10;13.07;;;17.40;99.90;;;;;;5143349;27;20482;-87
2021/09/02 09:02:48;;;;;;;12.70;11.40;;;17.50;99.90;;;;;;5141118;27;20496;-87
2021/09/02 09:05:17;;;;;;;11.77;10.53;;;17.40;99.90;;;;;;5143483;27;20446;-87
2021/09/02 09:07:45;;;;;;;13.23;10.50;;;16.50;99.90;;;;;;5144683;27;20458;-87
2021/09/02 09:10:18;;;;;;;11.60;10.50;;;17.30;99.90;;;;;;5143179;27;20946;-88
2021/09/02 09:12:46;;;;;;;12.27;10.87;;;17.70;99.90;;;;;;5146366;27;20434;-87
2021/09/02 09:15:17;;;;;;;11.20;9.87;;;17.30;99.90;;;;;;5142957;27;20931;-87
2021/09/02 09:17:44;;;;;;;13.93;10.57;;;17.10;99.90;;;;;;5143125;27;20462;-87
2021/09/02 09:20:11;;;;;;;11.20;10.10;;;17.20;99.90;;;;;;5143225;27;20539;-87
2021/09/02 09:22:40;;;;;;;12.27;11.07;;;17.20;99.90;;;;;;5148841;27;20442;-87
2021/09/02 09:25:08;;;;;;;14.20;12.33;;;16.70;99.90;;;;;;5147233;27;20443;-87
2021/09/02 09:27:37;;;;;;;12.63;11.30;;;17.30;99.90;;;;;;5146404;27;20446;-87
2021/09/02 09:30:13;;;;;;;26.10;18.80;;;17.70;99.90;;;;;;5150622;27;20448;-87
2021/09/02 09:32:42;;;;;;;15.30;12.10;;;17.10;99.90;;;;;;5149815;27;20502;-87
2021/09/02 09:35:11;;;;;;;12.43;11.30;;;17.00;99.90;;;;;;5149532;27;20438;-86
2021/09/02 09:37:39;;;;;;;14.23;12.93;;;17.00;99.90;;;;;;5156596;27;20463;-87
2021/09/02 09:40:15;;;;;;;11.60;10.40;;;17.10;99.90;;;;;;5155116;27;20462;-87
2021/09/02 09:42:55;;;;;;;11.83;10.43;;;17.10;99.90;;;;;;5153332;27;20433;-87
2021/09/02 09:45:33;;;;;;;9.50;8.57;;;17.00;99.90;;;;;;5156821;27;20419;-87
2021/09/02 09:48:00;;;;;;;10.90;8.20;;;17.00;99.90;;;;;;5161017;27;20447;-88
2021/09/02 09:50:26;;;;;;;10.03;9.07;;;17.20;99.90;;;;;;5161352;27;20463;-88
2021/09/02 09:52:54;;;;;;;9.43;8.53;;;17.30;99.90;;;;;;5161089;27;20423;-88
2021/09/02 09:55:21;;;;;;;10.63;8.10;;;17.30;99.90;;;;;;5161343;27;20434;-87
2021/09/02 09:57:48;;;;;;;11.33;8.63;;;17.30;99.90;;;;;;5158496;27;20477;-87
2021/09/02 10:00:18;;;;;;;8.77;7.90;;;17.30;99.90;;;;;;5159685;27;20477;-87
2021/09/02 10:02:47;;;;;;;9.70;8.70;;;17.50;99.90;;;;;;5158784;27;20443;-88
2021/09/02 10:05:15;;;;;;;9.60;8.60;;;17.50;99.90;;;;;;5148581;27;20461;-88
2021/09/02 10:07:44;;;;;;;11.80;10.60;;;17.90;99.90;;;;;;5148430;27;20478;-88
2021/09/02 10:10:14;;;;;;;9.97;8.90;;;17.40;99.90;;;;;;5153138;27;20443;-87
2021/09/02 10:12:42;;;;;;;9.53;8.60;;;17.60;99.90;;;;;;5150897;27;20476;-87
2021/09/02 10:15:11;;;;;;;9.07;8.30;;;17.70;99.90;;;;;;5146541;27;20856;-88
2021/09/02 10:17:39;;;;;;;10.53;9.43;;;17.70;99.90;;;;;;5145744;27;20499;-88
2021/09/02 10:20:13;;;;;;;12.97;8.97;;;17.30;99.90;;;;;;5144165;27;20508;-86
2021/09/02 10:22:40;;;;;;;9.73;8.53;;;17.80;99.90;;;;;;5146655;27;20445;-87
2021/09/02 10:25:35;;;;;;;9.50;8.60;;;17.80;99.90;;;;;;5145252;27;20450;-87
2021/09/02 10:28:03;;;;;;;12.40;9.93;;;17.80;99.90;;;;;;5144476;27;20492;-87
2021/09/02 10:30:31;;;;;;;9.43;8.60;;;17.70;99.90;;;;;;5142635;27;20874;-87
2021/09/02 10:33:00;;;;;;;10.90;9.90;;;17.80;99.90;;;;;;5141172;27;20431;-87
2021/09/02 10:35:35;;;;;;;10.80;9.60;;;17.80;99.90;;;;;;5151775;27;20446;-87
2021/09/02 10:38:02;;;;;;;15.77;11.83;;;17.80;99.90;;;;;;5142188;27;20458;-87
2021/09/02 10:40:49;;;;;;;12.03;10.93;;;17.70;99.90;;;;;;5141006;27;20478;-87
2021/09/02 10:43:59;;;;;;;11.07;9.93;;;17.60;99.90;;;;;;5139175;27;20854;-87
2021/09/02 10:46:34;;;;;;;10.63;9.30;;;17.80;99.90;;;;;;5126476;27;20457;-87
2021/09/02 10:49:27;;;;;;;15.30;11.50;;;18.00;99.90;;;;;;5140510;27;20497;-88
2021/09/02 10:51:56;;;;;;;11.30;10.00;;;17.40;99.90;;;;;;5128000;27;20447;-88
2021/09/02 10:54:25;;;;;;;12.93;11.50;;;18.00;99.90;;;;;;5146610;27;20441;-88
2021/09/02 10:56:55;;;;;;;13.57;10.37;;;18.10;99.90;;;;;;5148041;27;20499;-87
2021/09/02 10:59:42;;;;;;;11.30;10.30;;;18.10;99.90;;;;;;5145141;27;20458;-88
2021/09/02 11:02:31;;;;;;;17.73;11.83;;;18.00;99.90;;;;;;5145459;27;20423;-87
2021/09/02 11:04:59;;;;;;;19.10;12.83;;;18.10;99.90;;;;;;5144143;27;20939;-88
2021/09/02 11:07:35;;;;;;;12.40;11.23;;;18.10;99.90;;;;;;5148418;27;20452;-87
2021/09/02 11:10:07;;;;;;;16.23;12.20;;;18.00;99.90;;;;;;5142706;27;20433;-86
2021/09/02 11:12:34;;;;;;;13.60;12.23;;;18.30;99.90;;;;;;5141863;27;20980;-87
2021/09/02 11:15:01;;;;;;;13.63;12.30;;;18.40;99.90;;;;;;5143359;27;20851;-87
2021/09/02 11:17:32;;;;;;;13.70;11.10;;;18.50;99.90;;;;;;5141192;27;20446;-87
2021/09/02 11:20:01;;;;;;;13.00;11.37;;;19.10;99.90;;;;;;5142531;27;20482;-87
2021/09/02 11:22:28;;;;;;;11.67;10.43;;;18.40;99.90;;;;;;5150469;28;20450;-87
2021/09/02 11:24:55;;;;;;;13.90;12.43;;;18.50;99.90;;;;;;5158717;27;20446;-87
2021/09/02 11:27:29;;;;;;;13.13;11.77;;;18.50;99.90;;;;;;5159647;27;20507;-88
2021/09/02 11:30:15;;;;;;;15.50;11.30;;;18.50;99.90;;;;;;5159439;27;20429;-87
2021/09/02 11:32:44;;;;;;;12.80;11.47;;;18.40;99.90;;;;;;5159484;27;20480;-87
2021/09/02 11:35:12;;;;;;;20.00;14.93;;;18.50;99.90;;;;;;5159475;27;20430;-88
2021/09/02 11:37:40;;;;;;;15.00;10.67;;;18.50;99.90;;;;;;5152440;27;20467;-87
2021/09/02 11:40:09;;;;;;;16.30;12.93;;;18.70;99.90;;;;;;5145017;28;20486;-87
2021/09/02 11:42:37;;;;;;;12.43;11.03;;;18.70;99.90;;;;;;5147855;28;20438;-86
2021/09/02 11:45:04;;;;;;;14.83;11.67;;;18.80;99.90;;;;;;5145899;28;20447;-87
2021/09/02 11:47:35;;;;;;;12.43;11.13;;;18.70;99.90;;;;;;5143642;28;20506;-87
2021/09/02 11:50:05;;;;;;;14.50;9.97;;;18.80;99.90;;;;;;5144638;28;20435;-87
2021/09/02 11:52:38;;;;;;;13.07;10.80;;;18.80;99.90;;;;;;5143286;28;20501;-87
2021/09/02 11:55:06;;;;;;;13.33;11.40;;;18.80;99.90;;;;;;5141194;28;20533;-87
2021/09/02 11:57:33;;;;;;;11.60;10.40;;;18.50;99.90;;;;;;5140486;28;20443;-87
2021/09/02 11:59:59;;;;;;;11.03;9.27;;;18.80;99.90;;;;;;5145929;27;20482;-87
2021/09/02 12:02:27;;;;;;;14.23;10.50;;;18.90;99.90;;;;;;5148947;27;20512;-87
2021/09/02 12:04:54;;;;;;;15.50;10.97;;;18.90;99.90;;;;;;5152101;27;20438;-86
2021/09/02 12:07:23;;;;;;;13.77;9.97;;;18.90;99.90;;;;;;5150319;27;20454;-87
2021/09/02 12:09:50;;;;;;;13.13;11.00;;;18.90;99.90;;;;;;5151717;27;20530;-87
2021/09/02 12:12:28;;;;;;;9.87;8.87;;;19.00;99.90;;;;;;5149233;27;20445;-87
2021/09/02 12:14:54;;;;;;;10.50;9.37;;;19.10;99.90;;;;;;5153165;27;20434;-87
2021/09/02 12:17:31;;;;;;;10.90;9.90;;;19.00;99.90;;;;;;5146429;27;20499;-86
2021/09/02 12:20:00;;;;;;;13.07;11.30;;;19.10;99.90;;;;;;5145660;27;20461;-87
2021/09/02 12:22:33;;;;;;;14.53;11.47;;;19.10;99.90;;;;;;5148960;27;20442;-87
2021/09/02 12:25:12;;;;;;;12.77;11.47;;;19.10;99.90;;;;;;5144380;27;20438;-87
2021/09/02 12:27:44;;;;;;;10.80;9.13;;;19.10;99.90;;;;;;5146999;27;20473;-87
2021/09/02 12:30:12;;;;;;;11.00;9.70;;;19.20;99.90;;;;;;5147573;27;20447;-87
2021/09/02 12:32:38;;;;;;;11.67;9.60;;;19.30;99.90;;;;;;5145078;27;20423;-87
2021/09/02 12:35:13;;;;;;;13.37;10.23;;;19.40;99.90;;;;;;5145905;27;20468;-86
2021/09/02 12:37:41;;;;;;;10.03;8.67;;;19.40;99.90;;;;;;5152744;27;20459;-86
2021/09/02 12:40:14;;;;;;;10.33;9.07;;;19.40;99.90;;;;;;5160140;27;20492;-87
2021/09/02 12:42:41;;;;;;;12.57;9.20;;;19.40;99.90;;;;;;5161068;27;20423;-87